Date,TemperatureHighF,TemperatureAvgF,TemperatureLowF,DewpointHighF,DewpointAvgF,DewpointLowF,HumidityHigh,HumidityAvg,HumidityLow,PressureMaxIn,PressureMinIn,WindSpeedMaxMPH,WindSpeedAvgMPH,GustSpeedMaxMPH,PrecipitationSumIn
2013-1-1,45.5,41.7,35.7,43.1,37.8,29.6,92,86,76,30.32,30.04,13,2,13,0.01
2013-1-2,42.3,35.2,28.2,31.9,29.0,25.0,92,78,63,30.38,30.27,9,0,9,0.00
2013-1-3,50.6,38.9,27.8,34.4,29.9,24.6,91,72,47,30.50,30.35,15,1,15,0.01
2013-1-4,51.0,44.0,38.8,36.3,32.5,30.3,76,64,49,30.54,30.37,9,0,9,0.00
2013-1-5,57.6,45.2,35.9,40.4,37.4,32.0,92,75,49,30.37,30.20,13,2,13,0.00
2013-1-6,59.0,42.5,31.9,33.8,29.9,25.8,92,65,34,30.43,30.29,11,1,11,0.00
2013-1-7,56.6,41.8,26.3,36.5,31.0,22.6,91,68,43,30.35,30.11,13,1,13,0.00
2013-1-8,49.7,47.6,46.0,46.1,41.9,34.5,95,81,63,30.12,29.97,13,2,13,1.71
2013-1-9,56.6,52.7,47.6,55.2,51.2,46.2,96,95,93,30.15,29.93,20,3,20,1.61
2013-1-10,62.4,55.6,49.2,55.5,52.1,45.1,96,88,64,30.00,29.88,17,3,17,0.05
2013-1-11,72.4,59.6,46.9,61.6,50.9,43.0,90,74,45,29.94,29.74,22,6,22,0.00
2013-1-12,65.6,53.8,35.7,62.9,49.7,30.5,95,86,72,29.97,29.67,19,4,19,0.08
2013-1-13,45.2,36.8,31.2,30.8,25.2,20.8,82,63,47,30.31,29.95,16,4,17,0.00
2013-1-14,46.4,36.6,29.3,27.5,23.4,19.7,70,59,42,30.38,30.24,20,4,20,0.00
2013-1-15,39.3,34.9,30.3,32.1,27.2,22.4,90,74,64,30.28,30.17,17,3,17,0.10
2013-1-16,53.6,37.8,23.8,30.9,23.5,18.1,81,59,34,30.33,30.18,11,0,11,0.00
2013-1-17,63.1,45.8,31.0,38.0,31.7,25.2,86,60,36,30.51,30.26,13,1,13,0.00
2013-1-18,63.4,46.6,29.3,38.9,33.7,25.9,93,64,37,30.53,30.26,18,2,18,0.00
2013-1-19,69.3,53.0,41.8,46.6,41.7,34.7,87,67,42,30.26,30.12,17,3,17,0.00
2013-1-20,70.0,51.5,36.0,48.5,41.6,33.6,95,72,41,30.22,30.06,12,0,12,0.00
2013-1-21,58.1,47.1,39.2,41.1,32.6,26.6,89,59,40,30.32,30.12,20,2,20,0.00
2013-1-22,66.6,50.7,35.9,48.0,38.8,27.3,85,65,49,30.32,30.17,12,1,12,0.00
2013-1-23,76.9,61.8,46.8,57.0,52.3,43.1,92,73,48,30.25,30.09,17,4,17,0.00
2013-1-24,79.6,63.2,49.9,60.6,53.8,45.5,95,73,47,30.16,30.00,13,1,13,0.00
2013-1-25,52.9,48.8,44.5,50.3,43.6,38.9,94,83,70,30.21,30.01,16,2,17,0.00
2013-1-26,57.9,49.3,44.7,49.1,45.2,39.6,94,86,71,30.24,30.09,7,0,7,0.00
2013-1-27,75.0,62.0,49.7,63.3,56.8,47.9,96,84,61,30.10,29.89,24,6,24,0.00
2013-1-28,77.9,71.4,65.9,66.6,64.3,62.7,91,79,65,29.97,29.79,28,9,31,0.00
2013-1-29,79.1,65.8,51.4,66.8,59.4,36.4,93,80,50,29.80,29.40,34,8,34,0.49
2013-1-30,56.7,46.8,34.1,39.0,30.8,23.5,77,55,33,30.14,29.64,25,3,25,0.00
2013-1-31,72.2,50.4,33.3,34.5,29.0,25.1,78,49,20,30.34,30.07,27,4,27,0.00
2013-2-1,60.2,42.2,30.6,36.2,27.2,19.7,75,56,37,30.41,30.16,19,3,19,0.00
2013-2-2,68.5,55.0,42.4,47.1,38.6,33.4,87,57,30,30.33,30.14,17,2,17,0.00
2013-2-3,71.4,54.1,34.6,42.9,33.5,30.1,89,52,24,30.33,29.97,14,1,14,0.00
2013-2-4,75.1,63.3,56.2,57.5,50.3,31.6,89,64,35,29.98,29.76,21,4,21,0.00
2013-2-5,66.5,59.6,55.5,60.2,56.7,52.6,95,90,79,30.01,29.85,13,1,13,0.01
2013-2-6,77.0,63.9,55.0,63.6,57.4,53.1,95,81,47,30.01,29.82,19,2,19,0.01
2013-2-7,84.5,65.6,53.1,60.5,54.5,44.6,92,70,27,30.10,29.77,20,6,20,0.00
2013-2-8,66.3,53.5,41.7,44.8,35.2,24.2,80,54,21,30.26,30.10,15,1,15,0.00
2013-2-9,57.6,50.9,44.7,56.2,46.0,35.7,95,83,69,30.13,29.73,16,2,16,0.00
2013-2-10,71.9,59.2,42.1,62.2,40.8,27.8,95,57,20,30.01,29.64,22,3,22,0.80
2013-2-11,57.6,51.3,42.0,40.0,34.7,30.7,79,54,38,30.17,29.99,18,2,18,0.00
2013-2-12,48.8,46.7,40.8,45.7,43.3,37.2,93,88,74,30.06,29.86,15,1,15,0.28
2013-2-13,61.5,47.7,39.1,41.8,37.1,34.2,88,69,39,30.17,30.01,14,1,14,0.01
2013-2-14,72.8,49.3,38.1,44.1,37.0,33.9,92,67,27,30.10,29.98,11,1,11,0.00
2013-2-15,55.1,46.9,33.6,40.6,30.0,19.9,76,53,30,30.40,30.09,25,5,25,0.00
2013-2-16,60.2,44.2,27.9,33.0,28.0,21.6,82,55,33,30.44,30.17,13,0,13,0.00
2013-2-17,72.8,55.9,37.0,46.5,35.6,29.9,80,51,24,30.18,29.88,27,7,27,0.00
2013-2-18,80.2,62.2,50.1,57.8,45.3,32.2,81,57,29,30.12,29.74,30,8,30,0.00
2013-2-19,61.9,52.2,38.4,34.0,28.8,23.9,71,43,24,30.33,30.10,17,1,17,0.00
2013-2-20,52.5,44.7,41.1,41.6,37.9,32.9,86,77,47,30.20,29.79,20,1,20,0.23
2013-2-21,69.6,52.2,41.4,51.2,40.5,33.5,93,68,28,29.94,29.61,22,3,22,0.26
2013-2-22,50.9,40.3,30.4,36.4,27.8,22.8,85,62,42,30.17,29.93,17,2,17,0.00
2013-2-23,56.9,43.5,30.9,33.0,29.6,25.5,81,59,39,30.12,29.93,15,1,15,0.00
2013-2-24,70.5,53.6,32.8,46.4,38.1,27.6,86,58,37,29.93,29.58,19,1,19,0.00
2013-2-25,62.6,52.0,40.2,50.2,40.9,32.3,88,67,40,29.68,29.44,24,5,24,0.02
2013-2-26,61.9,48.3,40.2,37.4,34.1,31.7,76,60,37,29.91,29.67,23,3,23,0.00
2013-2-27,59.9,47.7,37.9,34.4,29.5,22.0,80,52,26,30.25,29.88,19,3,19,0.00
2013-2-28,61.9,47.6,33.8,32.6,28.2,23.8,79,50,28,30.30,30.17,16,2,18,0.00
2013-3-1,56.7,38.8,30.1,33.7,27.1,23.9,83,64,39,30.32,30.19,18,1,18,0.00
2013-3-2,58.8,43.9,29.9,30.3,27.0,24.0,81,54,29,30.45,30.23,14,2,14,0.00
2013-3-3,72.3,55.8,37.1,43.0,33.3,26.1,67,45,27,30.23,29.77,25,7,25,0.00
2013-3-4,89.7,69.8,54.9,50.3,43.4,36.5,65,43,16,29.79,29.55,25,9,25,0.00
2013-3-5,60.0,50.9,38.4,43.3,27.1,19.1,68,42,22,30.38,29.78,26,4,26,0.00
2013-3-6,64.0,48.4,31.5,28.3,24.5,19.2,77,42,19,30.48,30.20,13,0,13,0.00
2013-3-7,72.6,57.8,39.2,38.7,30.2,24.0,60,37,19,30.24,30.07,21,3,21,0.00
2013-3-8,62.9,58.6,54.4,56.6,51.1,38.5,90,76,47,30.17,29.96,19,2,19,0.01
2013-3-9,69.4,63.8,57.9,64.5,59.4,55.3,94,86,76,29.96,29.62,29,7,29,1.38
2013-3-10,57.9,50.9,37.3,56.2,40.4,31.5,95,68,50,30.10,29.70,22,3,22,0.06
2013-3-11,63.4,47.1,32.4,33.0,29.3,23.5,89,55,24,30.14,30.00,12,1,13,0.00
2013-3-12,69.3,53.2,36.9,34.5,31.2,26.1,80,47,25,30.31,30.03,17,1,17,0.00
2013-3-13,71.2,56.0,38.2,41.9,36.7,32.2,91,52,28,30.45,30.30,13,0,13,0.00
2013-3-14,80.2,60.3,48.1,49.1,39.9,33.7,68,48,32,30.33,30.14,21,3,21,0.00
2013-3-15,83.2,68.7,54.4,56.3,49.5,44.4,86,54,28,30.15,29.85,26,8,26,0.00
2013-3-16,81.8,70.5,57.8,60.6,55.0,46.5,83,59,46,29.86,29.64,26,10,26,0.00
2013-3-17,75.2,67.4,56.9,61.1,54.4,48.3,84,64,45,29.77,29.64,23,4,23,0.00
2013-3-18,71.8,62.2,55.4,59.0,48.2,39.0,91,62,43,30.00,29.61,20,3,20,0.00
2013-3-19,69.0,58.4,47.0,43.6,38.6,34.3,72,49,34,30.13,29.95,17,1,17,0.00
2013-3-20,68.8,58.0,46.6,41.7,36.0,28.6,75,46,24,30.31,30.02,9,0,9,0.00
2013-3-21,71.8,61.4,53.9,58.3,44.4,31.1,77,54,42,30.02,29.54,0,0,0,0.00
2013-3-22,66.3,53.3,46.1,60.7,48.4,41.9,90,84,64,29.86,29.53,0,0,0,0.00
2013-3-23,54.8,49.7,46.8,50.1,46.7,43.6,94,89,82,29.86,29.67,0,0,0,0.20
2013-3-24,55.5,46.4,38.1,46.6,30.8,20.7,91,57,34,30.20,29.83,0,0,0,0.01
2013-3-25,57.7,44.5,30.6,30.0,23.2,18.6,77,46,23,30.42,30.19,0,0,0,0.00
2013-3-26,61.6,42.6,28.5,31.5,24.3,21.1,80,51,28,30.52,30.30,0,0,0,0.00
2013-3-27,71.3,57.1,40.4,44.7,35.3,25.1,59,45,32,30.31,30.06,0,0,0,0.00
2013-3-28,70.7,62.6,51.4,58.1,52.6,44.5,85,70,60,30.20,30.05,0,0,0,0.00
2013-3-29,78.0,68.3,61.2,60.1,57.9,56.0,84,70,52,30.17,29.99,0,0,0,0.00
2013-3-30,77.8,67.5,55.7,65.3,60.3,53.7,95,79,62,30.08,29.84,0,0,0,0.82
2013-3-31,76.3,67.2,57.2,62.3,57.8,51.7,92,73,48,29.97,29.76,0,0,0,0.01
2013-4-1,81.5,60.1,47.7,57.0,50.3,44.9,95,74,33,30.06,29.91,0,0,0,0.00
2013-4-2,68.6,63.9,52.4,62.9,56.8,45.1,91,78,60,30.00,29.88,0,0,0,0.00
2013-4-3,55.1,48.4,43.5,49.0,45.1,41.0,93,88,72,30.17,29.93,0,0,0,0.54
2013-4-4,51.9,46.5,42.4,43.8,41.7,40.2,94,84,71,30.22,30.12,0,0,0,0.03
2013-4-5,71.7,56.0,38.0,50.6,45.0,35.3,95,69,42,30.26,30.01,0,0,0,0.00
2013-4-6,76.0,65.9,56.4,60.0,53.8,47.0,79,66,51,30.02,29.80,0,0,0,0.00
2013-4-7,73.0,67.3,61.6,63.2,60.3,56.6,86,78,70,29.87,29.70,0,0,0,0.00
2013-4-8,75.8,70.9,65.9,66.6,63.3,59.2,84,77,71,29.73,29.63,0,0,0,0.00
2013-4-9,80.7,74.3,69.0,67.9,65.6,63.0,86,75,63,29.68,29.58,0,0,0,0.00
2013-4-10,73.8,54.6,40.4,67.9,49.2,35.2,97,82,60,30.00,29.66,0,0,0,0.45
2013-4-11,64.0,50.4,39.6,42.6,37.1,32.1,83,62,42,29.99,29.81,0,0,0,0.00
2013-4-12,78.7,61.1,41.6,53.0,45.2,38.0,92,60,31,30.00,29.85,0,0,0,0.00
2013-4-13,79.0,67.4,51.7,53.3,49.4,44.7,83,54,36,29.99,29.75,0,0,0,0.00
2013-4-14,82.5,70.4,57.7,67.1,59.3,49.6,84,69,57,29.76,29.50,0,0,0,0.00
2013-4-15,87.2,77.3,68.7,70.3,67.4,65.2,90,73,52,29.72,29.57,0,0,0,0.00
2013-4-16,88.1,78.4,71.4,71.0,67.5,64.0,83,70,52,29.86,29.71,0,0,0,0.00
2013-4-17,85.6,78.0,72.9,70.6,69.0,67.6,90,75,58,29.84,29.57,0,0,0,0.00
2013-4-18,76.8,55.6,45.4,71.2,46.8,36.3,92,74,50,30.16,29.50,0,0,0,0.94
2013-4-19,66.7,51.7,37.5,38.5,34.3,30.1,85,56,28,30.30,30.13,0,0,0,0.00
2013-4-20,72.1,59.0,43.4,44.3,37.3,32.6,74,47,28,30.20,30.00,0,0,0,0.00
2013-4-21,72.3,62.0,51.2,54.1,47.8,37.5,75,60,46,30.19,30.05,0,0,0,0.00
2013-4-22,79.1,64.4,54.2,60.9,52.8,46.3,84,67,52,30.09,29.81,0,0,0,0.00
2013-4-23,69.3,54.5,41.2,61.5,49.2,37.9,92,82,69,30.20,29.76,0,0,0,0.05
2013-4-24,62.6,47.3,37.7,40.7,37.1,32.0,89,71,38,30.34,30.19,0,0,0,0.08
2013-4-25,75.4,63.2,48.1,47.2,41.6,34.9,67,47,28,30.34,30.12,0,0,0,0.00
2013-4-26,78.1,67.9,61.3,68.9,56.6,45.2,83,68,50,30.16,29.94,0,0,0,0.00
2013-4-27,75.8,68.4,58.8,66.5,59.9,54.0,91,75,55,30.11,29.95,0,0,0,0.00
2013-4-28,83.6,68.8,51.7,69.1,59.9,48.7,94,75,55,30.02,29.82,0,0,0,0.00
2013-4-29,86.8,75.4,60.9,69.4,62.1,56.6,92,66,38,29.88,29.75,0,0,0,0.00
2013-4-30,83.4,73.2,61.3,67.6,62.4,56.8,89,70,53,29.80,29.70,0,0,0,0.00
2013-5-1,83.3,73.5,66.0,70.1,64.9,62.2,90,75,55,29.93,29.75,0,0,0,0.00
2013-5-2,70.2,52.0,44.2,62.5,45.5,36.7,89,79,69,30.34,29.92,0,0,0,0.02
2013-5-3,69.5,53.9,37.0,39.0,34.5,30.3,84,53,25,30.33,30.02,0,0,0,0.00
2013-5-4,74.8,59.1,40.5,49.8,38.5,26.4,92,53,19,30.02,29.88,0,0,0,0.00
2013-5-5,71.2,59.8,48.0,49.5,44.7,38.9,75,58,44,30.16,30.02,0,0,0,0.00
2013-5-6,78.5,64.8,48.5,57.8,52.1,44.9,92,66,44,30.12,29.98,0,0,0,0.00
2013-5-7,86.9,73.6,55.4,61.0,55.4,51.0,89,56,32,30.05,29.89,0,0,0,0.00
2013-5-8,85.9,75.8,64.4,63.8,57.0,52.0,77,54,32,29.95,29.81,0,0,0,0.00
2013-5-9,76.9,69.9,65.5,67.4,63.3,56.8,92,80,54,29.95,29.81,0,0,0,0.19
2013-5-10,83.2,72.6,65.0,67.9,63.1,57.6,95,75,49,30.03,29.84,0,0,0,0.00
2013-5-11,82.0,72.0,59.4,58.7,54.7,48.3,88,57,32,30.16,30.01,0,0,0,0.00
2013-5-12,81.7,69.7,56.1,56.0,44.0,36.7,71,43,22,30.25,30.11,0,0,0,0.00
2013-5-13,89.0,73.9,55.9,58.3,50.0,42.5,67,45,30,30.21,30.06,0,0,0,0.00
2013-5-14,88.0,76.9,60.8,64.8,57.8,51.6,82,53,36,30.12,29.93,0,0,0,0.00
2013-5-15,78.3,73.0,62.8,69.7,65.6,60.5,93,78,64,30.00,29.68,0,0,0,1.67
2013-5-16,82.5,71.7,62.5,73.3,66.7,60.3,94,85,70,29.80,29.70,0,0,0,0.00
2013-5-17,90.9,80.7,73.1,75.8,72.5,70.2,93,77,58,29.81,29.69,0,0,0,0.00
2013-5-18,92.3,82.8,73.3,74.8,72.0,68.3,86,71,53,29.84,29.69,0,0,0,0.00
2013-5-19,88.2,80.8,71.1,72.9,69.5,65.7,86,69,59,29.78,29.61,0,0,0,0.00
2013-5-20,90.3,81.7,74.3,74.3,70.7,67.6,83,70,56,29.77,29.59,0,0,0,0.00
2013-5-21,81.8,71.9,60.4,72.3,66.0,56.8,93,82,68,29.85,29.63,0,0,0,0.73
2013-5-22,87.7,72.2,54.3,67.2,58.9,52.3,96,67,33,29.93,29.80,0,0,0,0.01
2013-5-23,87.9,78.1,69.9,74.0,70.0,62.5,93,77,61,30.03,29.84,0,0,0,0.00
2013-5-24,86.8,78.6,68.4,74.1,70.5,64.1,92,77,62,30.16,29.96,0,0,0,0.15
2013-5-25,85.3,72.5,67.1,73.4,68.1,63.4,93,87,64,30.16,30.00,0,0,0,0.37
2013-5-26,86.8,78.4,70.7,74.2,70.9,68.6,93,79,62,30.05,29.88,0,0,0,0.00
2013-5-27,86.1,78.4,71.7,72.5,69.4,67.2,86,74,61,29.95,29.74,0,0,0,0.00
2013-5-28,84.5,79.2,72.4,70.2,68.6,67.0,84,71,59,29.84,29.68,0,0,0,0.00
2013-5-29,84.8,76.8,71.5,74.0,70.3,67.5,92,81,66,29.78,29.65,1,0,1,0.39
2013-5-30,88.7,80.7,74.2,75.5,72.0,69.6,88,76,60,29.75,29.64,0,0,0,0.00
2013-5-31,90.4,82.8,77.0,76.6,73.5,71.3,85,74,58,29.79,29.62,0,0,0,0.00
2013-6-1,89.9,80.3,75.1,76.5,71.8,65.5,84,76,62,29.92,29.66,0,0,0,0.01
2013-6-2,85.2,76.0,65.2,65.7,59.1,52.7,85,58,34,30.06,29.91,0,0,0,0.00
2013-6-3,91.3,77.7,62.7,64.8,60.5,57.0,87,58,34,29.97,29.79,0,0,0,0.00
2013-6-4,92.6,82.1,72.0,72.1,67.7,61.1,78,63,47,29.96,29.73,0,0,0,0.00
2013-6-5,92.8,83.6,75.1,72.9,69.5,66.6,81,63,46,29.89,29.71,0,0,0,0.00
2013-6-6,81.3,74.8,68.7,72.1,67.8,64.5,92,79,67,29.92,29.77,0,0,0,0.13
2013-6-7,85.7,74.9,61.2,66.0,60.0,55.8,94,63,37,30.00,29.86,0,0,0,0.00
2013-6-8,90.3,77.9,60.8,65.1,61.1,57.0,89,59,40,29.92,29.74,0,0,0,0.00
2013-6-9,89.6,79.3,67.7,72.3,68.4,61.7,95,71,52,29.92,29.78,0,0,0,1.60
2013-6-10,98.8,84.7,68.2,75.8,68.4,62.0,93,62,33,29.93,29.84,0,0,0,0.00
2013-6-11,94.7,86.0,75.2,76.6,71.5,66.4,86,63,49,29.98,29.86,0,0,0,0.00
2013-6-12,96.8,84.5,75.9,77.1,72.2,68.7,87,68,46,30.01,29.86,0,0,0,0.00
2013-6-13,100.6,88.7,75.3,76.4,71.4,68.1,83,58,37,30.01,29.83,0,0,0,0.00
2013-6-14,99.0,88.4,75.3,75.8,71.5,68.7,81,59,42,29.95,29.83,0,0,0,0.00
2013-6-15,93.2,83.7,72.8,77.5,73.0,68.9,91,71,57,29.96,29.83,0,0,0,0.07
2013-6-16,97.5,86.9,74.8,78.4,72.2,67.7,89,64,45,29.97,29.81,0,0,0,0.00
2013-6-17,93.7,82.5,69.1,77.9,72.8,66.4,94,74,57,30.00,29.79,0,0,0,0.45
2013-6-18,87.3,78.3,68.6,73.5,70.3,65.8,94,78,54,29.98,29.84,0,0,0,0.44
2013-6-19,95.0,83.2,71.2,78.4,72.3,67.7,93,71,53,29.96,29.80,0,0,0,0.00
2013-6-20,95.9,86.5,76.5,74.7,71.5,67.5,87,63,42,29.99,29.87,0,0,0,0.00
2013-6-21,96.7,87.7,77.3,75.0,70.6,66.7,82,58,41,30.01,29.90,0,0,0,0.00
2013-6-22,96.5,87.3,75.7,74.2,70.2,67.5,78,58,44,29.99,29.82,0,0,0,0.00
2013-6-23,96.6,87.7,77.7,73.7,70.4,66.4,80,58,42,29.94,29.82,0,0,0,0.00
2013-6-24,95.5,87.1,76.7,74.2,70.1,67.2,82,59,41,29.99,29.82,0,0,0,0.00
2013-6-25,98.0,88.2,78.0,74.3,70.2,65.7,80,57,41,29.94,29.75,0,0,0,0.00
2013-6-26,98.9,88.7,77.5,75.4,71.6,65.1,80,58,44,29.91,29.78,0,0,0,0.00
2013-6-27,102.9,91.1,79.7,77.9,72.3,68.9,75,56,38,29.97,29.80,0,0,0,0.00
2013-6-28,103.6,90.1,78.1,75.6,70.3,66.2,75,54,35,29.90,29.76,0,0,0,0.00
2013-6-29,98.2,86.9,74.8,73.4,67.2,62.1,82,55,33,29.87,29.75,0,0,0,0.00
2013-6-30,92.2,83.5,74.2,67.2,62.7,57.8,78,51,34,29.91,29.77,0,0,0,0.00
2013-7-1,89.1,77.9,67.3,65.5,60.7,57.3,79,57,35,30.00,29.90,0,0,0,0.00
2013-7-2,90.1,76.2,64.7,62.9,57.7,52.4,77,55,29,30.06,29.96,0,0,0,0.00
2013-7-3,92.3,76.0,63.1,66.0,56.4,49.7,83,55,25,30.03,29.90,0,0,0,0.00
2013-7-4,96.5,84.1,71.1,67.3,61.4,52.7,73,49,25,29.97,29.84,0,0,0,0.00
2013-7-5,98.1,87.0,73.0,68.2,63.5,59.4,70,47,30,29.96,29.80,0,0,0,0.00
2013-7-6,98.1,88.2,74.5,70.3,64.4,59.3,68,47,30,29.90,29.80,0,0,0,0.00
2013-7-7,99.5,89.0,76.5,73.2,67.7,63.2,72,51,33,29.96,29.85,0,0,0,0.00
2013-7-8,99.0,88.3,78.1,76.1,72.1,64.6,81,60,39,30.04,29.92,0,0,0,0.00
2013-7-9,101.8,90.4,78.5,73.7,68.1,62.8,78,50,29,30.07,29.91,0,0,0,0.00
2013-7-10,103.4,92.9,82.4,77.9,70.5,65.1,72,50,32,30.00,29.83,0,0,0,0.00
2013-7-11,104.1,88.7,80.9,77.6,69.7,66.3,74,54,34,29.92,29.81,0,0,0,0.00
2013-7-12,102.4,90.2,76.9,74.9,71.5,68.4,83,57,36,29.93,29.82,0,0,0,0.00
2013-7-13,101.0,91.0,81.2,72.9,69.3,60.0,70,50,36,29.95,29.81,0,0,0,0.00
2013-7-14,85.3,73.9,69.6,69.8,65.9,59.5,92,78,46,29.99,29.84,0,0,0,0.38
2013-7-15,73.8,70.8,67.8,71.2,68.6,66.0,95,93,85,30.07,29.93,0,0,0,0.55
2013-7-16,90.3,77.3,71.0,74.6,71.8,68.7,95,85,56,30.19,30.05,0,0,0,0.45
2013-7-17,91.1,79.3,70.1,76.9,71.9,68.0,96,80,55,30.20,30.09,0,0,0,0.52
2013-7-18,97.4,84.3,71.7,78.1,72.9,69.3,94,71,44,30.16,29.96,0,0,0,0.01
2013-7-19,99.8,85.0,75.2,77.0,73.0,68.1,89,69,39,30.01,29.88,0,0,0,0.00
2013-7-20,98.0,83.8,75.4,78.4,72.4,68.9,89,70,42,29.94,29.80,0,0,0,0.24
2013-7-21,99.1,87.1,75.1,78.0,73.2,69.7,88,66,44,29.88,29.78,0,0,0,0.00
2013-7-22,99.6,88.7,77.8,78.0,74.0,71.0,88,64,42,29.92,29.80,0,0,0,0.00
2013-7-23,100.5,90.6,80.0,79.8,74.3,67.5,81,60,44,29.92,29.76,0,0,0,0.00
2013-7-24,98.3,86.3,76.5,75.1,70.8,67.7,77,61,41,30.03,29.80,0,0,0,0.00
2013-7-25,96.0,86.3,74.9,76.6,72.7,69.5,86,65,48,30.01,29.91,0,0,0,0.00
2013-7-26,96.5,85.2,76.4,78.3,74.1,70.8,94,71,50,29.97,29.81,0,0,0,0.25
2013-7-27,92.1,82.1,73.5,72.1,68.0,63.0,84,64,40,30.00,29.86,0,0,0,0.00
2013-7-28,94.4,83.4,68.8,72.8,69.1,64.6,91,64,45,29.96,29.82,0,0,0,0.00
2013-7-29,97.7,87.7,78.8,76.8,72.6,65.3,83,63,44,29.94,29.85,0,0,0,0.00
2013-7-30,100.4,89.0,79.1,75.6,71.2,65.3,79,57,41,30.04,29.88,0,0,0,0.00
2013-7-31,103.6,91.8,80.0,77.9,72.3,66.3,68,54,39,30.01,29.85,0,0,0,0.00
2013-8-1,102.7,90.4,81.1,79.3,76.4,70.2,85,66,38,29.96,29.82,0,0,0,0.00
2013-8-2,104.5,93.4,81.0,74.5,70.7,66.8,73,50,34,29.89,29.78,0,0,0,0.00
2013-8-3,102.9,92.4,81.0,73.3,69.3,65.8,68,48,33,29.96,29.85,0,0,0,0.00
2013-8-4,102.3,92.1,81.0,75.2,71.1,67.5,75,52,34,30.01,29.86,0,0,0,0.00
2013-8-5,104.6,93.0,81.6,73.7,70.0,64.4,72,49,32,29.95,29.77,0,0,0,0.00
2013-8-6,105.9,93.4,80.7,74.2,68.8,63.4,73,47,30,29.85,29.72,0,0,0,0.00
2013-8-7,107.3,94.2,81.5,74.4,70.1,65.6,71,48,30,29.83,29.69,0,0,0,0.00
2013-8-8,104.1,92.3,81.5,79.1,71.2,64.5,77,52,33,29.84,29.70,0,0,0,0.01
2013-8-9,104.7,86.8,82.5,75.5,68.7,64.3,68,56,31,29.92,29.77,0,0,0,0.00
2013-8-10,98.8,87.7,77.7,77.0,73.1,69.1,88,64,40,30.02,29.91,0,0,0,0.00
2013-8-11,103.2,90.0,76.8,77.5,71.4,67.0,83,57,33,30.02,29.89,0,0,0,0.00
2013-8-12,102.1,91.2,78.5,76.1,71.5,67.8,79,54,37,30.00,29.85,0,0,0,0.00
2013-8-13,102.3,87.8,81.6,76.3,71.1,67.4,71,59,40,29.96,29.82,0,0,0,0.00
2013-8-14,92.3,82.3,77.8,75.7,73.0,69.0,83,74,54,30.00,29.90,0,0,0,0.00
2013-8-15,91.0,81.1,73.2,69.8,66.2,62.6,78,62,47,30.04,29.91,0,0,0,0.00
2013-8-16,90.6,79.0,67.8,70.1,65.9,62.0,92,66,46,30.04,29.92,0,0,0,0.07
2013-8-17,92.2,79.6,65.4,65.5,61.3,59.1,84,56,35,30.08,29.93,0,0,0,0.00
2013-8-18,93.5,81.2,67.6,68.8,63.5,60.7,83,57,37,30.08,29.95,10,0,12,0.00
2013-8-19,97.1,84.0,70.1,70.5,64.3,60.4,84,55,34,30.04,29.89,11,0,11,0.00
2013-8-20,99.4,87.0,72.2,71.0,63.2,58.1,72,47,29,30.00,29.90,11,0,11,0.00
2013-8-21,97.7,87.3,76.1,72.2,67.2,61.9,74,53,36,30.05,29.92,10,0,10,0.00
2013-8-22,100.9,90.0,77.0,74.7,69.6,66.8,77,53,35,30.05,29.87,13,0,13,0.00
2013-8-23,102.2,90.7,79.6,76.0,70.4,67.1,75,53,33,29.99,29.83,14,0,14,0.00
2013-8-24,101.2,91.1,80.1,74.7,69.7,65.4,71,51,33,30.01,29.90,13,0,13,0.00
2013-8-25,99.0,90.1,79.1,73.3,69.0,65.9,72,51,35,30.10,29.99,13,0,13,0.00
2013-8-26,98.5,87.9,77.1,72.1,68.5,62.7,78,55,35,30.12,29.99,13,1,13,0.00
2013-8-27,96.2,84.1,75.4,73.2,70.3,66.6,84,65,40,30.08,29.97,18,2,18,0.00
2013-8-28,101.1,87.2,72.7,74.6,68.5,64.6,83,57,33,30.07,29.94,12,0,12,0.00
2013-8-29,102.8,89.6,74.0,74.2,68.1,64.6,85,53,31,30.03,29.90,9,0,9,0.00
2013-8-30,105.8,91.6,78.3,72.8,67.2,64.3,69,47,28,29.97,29.81,6,0,8,0.00
2013-8-31,106.1,92.4,77.8,73.7,66.9,63.4,67,46,27,29.86,29.72,7,0,13,0.00
2013-9-1,107.2,92.7,80.8,73.5,68.2,65.1,69,47,28,29.83,29.70,12,0,12,0.01
2013-9-2,92.8,82.2,74.1,77.9,73.8,70.5,94,77,56,29.98,29.79,10,0,10,0.28
2013-9-3,99.7,87.0,75.5,76.4,67.2,60.3,82,54,32,29.97,29.83,14,0,14,0.00
2013-9-4,103.0,88.4,74.0,75.1,68.8,64.6,84,55,34,30.00,29.90,9,0,9,0.00
2013-9-5,100.5,89.5,76.9,76.3,68.8,61.4,79,53,28,30.06,29.93,12,0,12,0.00
2013-9-6,102.8,90.3,76.1,75.8,67.0,62.7,72,48,30,30.04,29.89,7,0,7,0.00
2013-9-7,101.7,90.2,79.5,73.8,68.3,61.9,73,51,29,29.99,29.85,14,1,14,0.00
2013-9-8,99.2,86.9,72.6,74.8,67.9,63.0,85,56,36,29.94,29.82,12,0,12,0.00
2013-9-9,98.7,86.7,73.6,73.7,68.3,65.3,85,56,37,29.96,29.85,16,1,16,0.00
2013-9-10,95.5,85.2,75.8,74.0,67.6,58.4,83,58,34,30.06,29.93,14,1,14,0.00
2013-9-11,98.8,83.0,72.1,74.0,67.6,63.6,87,61,39,30.09,29.96,11,0,11,0.00
2013-9-12,99.4,87.5,74.8,74.2,69.1,66.6,82,57,37,30.04,29.88,10,0,10,0.00
2013-9-13,98.1,86.6,77.9,73.0,69.7,66.3,74,58,40,29.93,29.78,17,1,17,0.00
2013-9-14,93.7,84.8,76.1,69.0,65.1,61.4,65,53,41,29.94,29.82,13,0,13,0.00
2013-9-15,97.0,86.7,75.9,73.1,66.3,61.0,61,51,40,29.99,29.90,10,0,10,0.00
2013-9-16,98.9,87.9,75.7,75.2,67.5,62.6,76,53,32,30.05,29.91,10,0,11,0.00
2013-9-17,94.2,86.3,76.9,72.8,67.8,64.7,71,55,41,30.03,29.89,9,0,10,0.00
2013-9-18,98.5,87.7,78.0,73.2,67.7,62.2,73,53,33,29.98,29.82,14,1,15,0.00
2013-9-19,91.1,83.4,71.1,73.7,70.4,65.4,93,66,51,29.95,29.82,12,1,12,0.95
2013-9-20,74.9,72.2,68.3,71.7,69.7,62.9,95,92,83,29.91,29.82,15,2,15,0.79
2013-9-21,85.2,72.0,60.9,62.5,56.0,50.5,86,61,32,29.98,29.84,19,2,19,0.00
2013-9-22,85.7,71.3,56.3,60.4,54.8,51.7,90,60,34,29.93,29.77,10,0,10,0.00
2013-9-23,87.8,73.7,58.9,61.4,56.5,53.0,88,58,34,29.85,29.71,11,0,11,0.00
2013-9-24,95.5,78.3,63.7,72.6,59.4,50.5,92,58,24,29.91,29.80,11,0,11,0.00
2013-9-25,96.8,77.6,57.9,64.8,55.6,51.3,87,52,24,29.88,29.73,7,0,7,0.00
2013-9-26,97.4,82.7,68.3,66.5,58.9,53.4,68,46,28,29.85,29.75,13,1,13,0.00
2013-9-27,89.7,81.6,72.4,72.7,68.0,60.8,77,64,55,29.90,29.78,16,2,16,0.00
2013-9-28,84.2,76.1,67.2,76.8,70.2,61.5,94,82,70,30.03,29.82,16,2,16,0.71
2013-9-29,83.4,71.8,61.8,61.5,57.1,49.4,86,63,33,30.05,29.89,9,1,14,0.00
2013-9-30,89.4,73.1,56.0,64.3,57.0,52.8,93,62,30,29.91,29.77,6,0,9,0.00
2013-10-1,91.5,72.7,64.4,72.9,65.6,60.5,93,80,41,29.91,29.80,11,0,11,0.00
2013-10-2,92.4,80.6,74.8,72.8,71.1,69.6,89,74,51,29.95,29.81,13,2,13,0.00
2013-10-3,92.5,82.3,75.1,74.5,71.3,68.7,87,71,48,29.89,29.75,16,4,16,0.00
2013-10-4,89.7,81.4,73.9,72.0,70.2,68.3,88,70,52,29.88,29.77,17,4,17,0.00
2013-10-5,80.1,64.3,51.2,70.4,56.8,45.1,93,78,57,30.10,29.82,17,3,17,0.31
2013-10-6,76.9,61.1,47.0,49.7,43.8,35.6,94,60,24,30.14,30.01,13,0,13,0.00
2013-10-7,83.9,64.4,47.1,53.0,46.2,37.6,94,58,21,30.15,30.04,9,0,9,0.00
2013-10-8,84.0,67.1,48.3,53.8,49.3,44.5,93,58,30,30.10,29.96,9,0,9,0.00
2013-10-9,85.5,71.6,58.0,59.9,55.5,51.9,83,59,38,30.05,29.94,13,1,13,0.00
2013-10-10,86.2,69.5,60.9,66.1,58.6,54.2,89,70,45,30.03,29.84,11,1,12,0.00
2013-10-11,85.7,77.1,69.9,75.0,68.5,61.8,85,75,61,29.90,29.77,15,4,15,0.06
2013-10-12,95.6,80.3,72.3,77.4,71.7,65.4,88,77,44,30.04,29.83,15,2,15,0.03
2013-10-13,75.4,71.7,67.1,69.8,67.4,63.8,93,87,80,30.18,30.03,11,0,11,0.00
2013-10-14,73.2,71.1,69.0,71.7,69.0,66.9,95,93,87,30.12,29.89,15,2,15,0.56
2013-10-15,75.3,65.6,53.6,72.2,63.1,51.6,94,91,82,30.07,29.87,16,2,16,0.57
2013-10-16,67.8,58.9,53.6,53.2,50.4,46.9,94,75,54,30.10,30.00,16,2,16,0.15
2013-10-17,74.8,59.0,44.0,53.9,47.3,41.3,93,68,38,30.13,29.97,6,0,6,0.01
2013-10-18,70.2,60.4,50.6,57.8,52.3,46.8,92,76,54,30.11,29.88,15,1,15,0.00
2013-10-19,68.5,53.9,41.0,46.9,41.8,37.4,92,66,37,30.23,30.07,14,1,14,0.00
2013-10-20,73.8,58.0,41.3,48.3,44.2,38.1,93,64,36,30.08,29.85,14,2,17,0.00
2013-10-21,77.7,60.7,53.2,64.0,52.5,46.5,88,75,58,30.11,29.89,14,2,14,0.00
2013-10-22,78.9,59.3,40.1,51.9,45.9,37.1,93,66,35,30.17,30.00,10,0,10,0.00
2013-10-23,85.0,65.2,46.7,56.9,50.1,43.8,94,63,31,30.12,30.00,5,0,6,0.00
2013-10-24,80.7,66.2,53.5,57.2,50.6,43.6,83,58,42,30.28,30.04,18,1,18,0.00
2013-10-25,70.2,59.9,50.8,49.4,46.0,42.3,80,61,46,30.40,30.23,11,0,11,0.00
2013-10-26,77.8,64.1,55.9,64.9,56.4,47.6,93,76,63,30.23,29.99,15,2,15,0.50
2013-10-27,65.8,61.6,57.8,59.5,57.9,53.6,94,88,77,30.12,30.00,5,0,5,0.00
2013-10-28,75.7,66.2,54.4,67.9,61.8,51.5,95,86,74,30.09,29.97,12,1,12,0.00
2013-10-29,76.3,72.4,70.0,70.1,68.0,66.2,89,86,81,30.05,29.95,14,3,14,0.00
2013-10-30,72.6,69.2,66.1,69.1,66.7,64.0,94,92,86,29.98,29.75,19,3,19,0.10
2013-10-31,77.3,67.9,51.4,68.2,56.2,45.4,95,70,34,29.85,29.65,17,2,21,0.02
2013-11-1,79.0,59.6,45.3,53.0,47.6,43.0,95,68,37,30.09,29.80,15,1,15,0.00
2013-11-2,69.8,57.3,45.3,45.1,40.4,35.8,81,56,31,30.29,30.08,17,1,17,0.00
2013-11-3,69.1,55.5,41.5,47.7,41.8,36.5,89,63,37,30.21,29.96,16,2,16,0.00
2013-11-4,60.4,58.6,56.8,59.0,53.9,47.5,95,85,65,30.09,29.96,14,2,15,0.60
2013-11-5,69.8,65.0,60.4,67.7,63.2,59.0,95,94,89,30.04,29.91,15,2,15,0.28
2013-11-6,70.1,55.3,42.5,67.9,48.4,38.0,93,78,53,30.37,29.93,16,2,16,0.12
2013-11-7,66.2,50.4,36.5,46.0,40.5,34.0,94,72,37,30.52,30.36,6,0,6,0.00
2013-11-8,67.3,55.0,40.5,48.5,43.2,38.3,95,68,39,30.39,30.12,13,2,13,0.00
2013-11-9,71.5,61.6,56.3,55.6,50.0,45.4,71,66,56,30.20,30.08,14,2,14,0.00
2013-11-10,66.3,58.2,48.1,53.0,48.8,44.7,92,71,59,30.33,30.20,6,0,6,0.00
2013-11-11,76.8,59.4,44.5,57.8,50.9,42.3,96,76,50,30.28,30.15,6,0,7,0.01
2013-11-12,61.6,49.8,37.5,57.0,34.3,20.4,87,58,29,30.70,30.27,21,5,21,0.00
2013-11-13,54.7,41.3,27.0,29.8,26.1,21.5,89,57,33,30.70,30.38,10,0,11,0.00
2013-11-14,60.4,42.1,30.7,47.1,30.9,25.5,85,67,29,30.38,30.00,13,1,13,0.00
2013-11-15,74.6,62.2,51.9,58.6,53.1,46.8,91,74,48,30.01,29.81,14,2,14,0.00
2013-11-16,79.1,69.6,61.7,69.2,63.3,58.2,91,81,61,29.84,29.63,21,5,21,0.00
2013-11-17,89.7,75.0,61.0,69.1,58.2,40.7,91,60,29,29.99,29.66,15,3,15,0.00
2013-11-18,73.8,63.5,53.6,38.9,35.4,31.6,49,36,23,30.17,29.99,11,1,11,0.00
2013-11-19,70.6,62.0,56.4,41.1,37.1,34.1,52,40,27,30.17,29.99,12,1,12,0.00
2013-11-20,66.0,58.5,49.0,55.6,44.5,36.0,78,60,46,30.01,29.87,14,2,14,0.00
2013-11-21,74.0,62.6,40.6,69.2,59.1,38.2,93,88,74,30.23,29.92,26,1,26,0.33
2013-11-22,40.7,36.7,35.0,38.1,34.0,32.0,94,90,83,30.49,30.22,18,4,21,0.41
2013-11-23,43.2,38.6,36.1,37.0,33.6,26.6,94,83,61,30.58,30.46,20,4,20,0.02
2013-11-24,37.4,34.8,33.1,29.1,26.5,22.3,81,72,63,30.61,30.35,18,3,18,0.02
2013-11-25,38.3,35.7,32.9,35.3,33.1,27.0,94,90,76,30.37,30.16,12,1,13,0.43
2013-11-26,53.4,42.5,35.9,38.6,33.0,26.1,92,71,46,30.40,30.16,20,3,20,0.01
2013-11-27,49.6,36.7,27.2,26.5,21.7,18.1,83,57,32,30.49,30.35,14,1,18,0.00
2013-11-28,56.3,39.4,27.1,32.5,27.1,22.1,84,64,34,30.47,30.36,10,0,10,0.00
2013-11-29,60.9,43.7,26.2,42.0,33.5,23.1,93,70,41,30.53,30.34,11,1,11,0.00
2013-11-30,68.3,53.4,39.5,53.9,45.9,34.8,94,77,59,30.35,30.13,19,3,19,0.00
2013-12-1,70.1,58.1,50.1,59.2,53.5,47.6,94,85,67,30.16,29.89,15,2,15,0.00
2013-12-2,72.0,53.7,38.5,53.6,46.0,36.6,96,78,50,29.89,29.65,7,0,7,0.01
2013-12-3,78.0,57.2,40.5,50.6,43.0,38.1,95,65,28,29.67,29.50,10,0,10,0.00
2013-12-4,81.2,58.6,47.7,53.1,44.9,36.4,83,62,37,29.90,29.56,18,1,18,0.00
2013-12-5,48.1,34.9,29.3,36.3,26.2,20.6,92,72,54,30.20,29.89,20,4,20,0.03
2013-12-6,32.0,27.5,24.4,29.9,23.9,18.8,93,86,79,30.56,30.13,0,0,0,0.00
2013-12-7,27.1,24.4,20.9,24.6,19.3,14.8,92,81,77,30.58,30.30,9,0,9,0.00
2013-12-8,33.9,30.3,26.3,30.4,27.5,22.7,92,89,86,30.31,30.06,4,0,4,0.01
2013-12-9,36.1,32.6,28.7,30.2,27.4,20.8,93,81,70,30.45,30.17,21,2,21,0.26
2013-12-10,38.7,28.8,18.2,24.9,20.3,13.5,92,71,48,30.56,30.36,9,0,9,0.54
2013-12-11,44.2,33.1,23.5,32.3,26.8,20.7,92,78,60,30.63,30.34,12,0,12,0.38
2013-12-12,47.8,35.1,24.0,35.3,28.4,21.0,92,77,57,30.64,30.31,9,0,9,0.34
2013-12-13,46.5,43.3,39.5,44.9,38.8,32.8,94,84,73,30.31,29.79,11,2,15,0.07
2013-12-14,46.5,40.7,30.7,44.8,35.8,26.2,95,83,63,30.35,29.77,16,2,18,0.00
2013-12-15,63.9,43.1,25.8,38.3,31.0,23.2,94,67,33,30.37,30.22,12,1,12,0.01
2013-12-16,68.3,50.3,35.3,39.8,36.1,31.0,86,61,34,30.24,30.14,11,1,11,0.00
2013-12-17,71.2,50.3,32.7,44.0,37.5,29.4,93,66,32,30.30,30.19,8,0,8,0.00
2013-12-18,72.2,53.0,33.3,49.7,41.4,30.3,93,68,34,30.26,29.98,20,4,20,0.00
2013-12-19,71.7,62.9,54.9,61.6,55.6,48.1,87,78,65,29.98,29.71,30,10,30,0.00
2013-12-20,66.9,53.7,34.8,63.0,50.5,33.0,93,89,70,29.85,29.72,23,3,23,0.03
2013-12-21,51.0,42.8,34.8,49.7,41.3,32.8,96,94,93,29.80,29.55,13,1,13,1.45
2013-12-22,44.5,37.2,29.4,41.4,31.0,25.1,95,79,60,30.42,29.79,15,2,15,0.00
2013-12-23,48.4,35.5,27.7,32.0,28.0,24.3,90,76,49,30.59,30.40,10,1,10,0.00
2013-12-24,53.2,39.3,25.0,36.0,30.4,21.5,90,72,50,30.58,30.26,17,2,17,0.00
2013-12-25,61.1,44.6,35.2,45.0,35.5,30.2,86,72,45,30.43,30.26,17,1,17,0.00
2013-12-26,54.9,39.4,27.2,37.2,30.9,24.8,93,74,42,30.47,30.34,9,0,9,0.00
2013-12-27,58.9,42.8,28.7,42.0,33.8,26.1,93,73,43,30.47,30.34,9,0,9,0.00
2013-12-28,62.9,48.2,32.9,45.5,38.4,29.7,94,71,49,30.34,29.96,15,2,15,0.00
2013-12-29,50.1,38.7,31.7,42.8,32.4,24.1,91,78,67,30.32,29.93,16,2,16,0.00
2013-12-30,46.8,35.3,28.5,24.1,21.7,17.9,79,59,38,30.44,30.28,12,0,12,0.00
2013-12-31,55.5,40.3,23.7,31.0,26.5,19.7,89,61,35,30.46,30.20,10,1,13,0.00
2014-1-1,70.1,47.6,33.0,49.1,35.3,24.3,84,64,44,30.23,29.85,22,5,22,0.00
2014-1-2,45.2,32.7,24.5,24.1,20.1,17.1,77,61,38,30.51,30.23,19,2,19,0.00